Briercrest, Canada
Current Conditions -  °F | °C
As of 3:00 PM on Monday 20 Oct 2014 (Local Time) from CYQR Reporting Station
Few Clouds Few Clouds  
Wind Chill: 24°   Ceiling: Unl
Heat Index: 24°   Visibility: 15mi
Dew Point:   Wind: 16mph
Humidity: 34%   Direction: 190°S
Pressure: 29.77"   Gusts: 22mph
Location:  50.17°N, 105.27°W
Report Text: CYQR 202100Z 19014G19KT 15SM FEW300 24/07 A2977 RMK CI1 CI TR SLP090 DENSITY ALT 3500FT
Loading
Personal Weather Stations






























Interactive Weather Map
Tropical Storm Tracking
New forecast layout! Learn more

10-Day Weather Forecast

Advertisements
Track Severe Weather on mobile